sensor_id;sensor_type;location;lat;lon;timestamp;temperature;humidity
31597;DHT22;18201;50.978;7.034;2022-08-20T00:00:04;20.70;99.90
31597;DHT22;18201;50.978;7.034;2022-08-20T00:01:05;20.70;99.90
31597;DHT22;18201;50.978;7.034;2022-08-20T00:02:07;20.70;99.90
31597;DHT22;18201;50.978;7.034;2022-08-20T00:03:13;20.70;99.90
31597;DHT22;18201;50.978;7.034;2022-08-20T00:04:15;20.70;99.90
31597;DHT22;18201;50.978;7.034;2022-08-20T00:05:22;20.60;99.90
31597;DHT22;18201;50.978;7.034;2022-08-20T00:06:25;20.70;99.90
31597;DHT22;18201;50.978;7.034;2022-08-20T00:07:25;20.70;99.90
31597;DHT22;18201;50.978;7.034;2022-08-20T00:08:32;20.60;99.90
31597;DHT22;18201;50.978;7.034;2022-08-20T00:09:34;20.60;99.90
31597;DHT22;18201;50.978;7.034;2022-08-20T00:10:37;20.70;99.90
31597;DHT22;18201;50.978;7.034;2022-08-20T00:11:39;20.60;99.90
31597;DHT22;18201;50.978;7.034;2022-08-20T00:12:43;20.60;99.90
31597;DHT22;18201;50.978;7.034;2022-08-20T00:13:49;20.60;99.90
31597;DHT22;18201;50.978;7.034;2022-08-20T00:14:50;20.60;99.90
31597;DHT22;18201;50.978;7.034;2022-08-20T00:15:52;20.60;99.90
31597;DHT22;18201;50.978;7.034;2022-08-20T00:16:53;20.60;99.90
31597;DHT22;18201;50.978;7.034;2022-08-20T00:17:56;20.60;99.90
31597;DHT22;18201;50.978;7.034;2022-08-20T00:18:58;20.70;99.90
31597;DHT22;18201;50.978;7.034;2022-08-20T00:19:59;20.60;99.90
31597;DHT22;18201;50.978;7.034;2022-08-20T00:21:00;20.60;99.90
31597;DHT22;18201;50.978;7.034;2022-08-20T00:22:02;20.60;99.90
31597;DHT22;18201;50.978;7.034;2022-08-20T00:23:04;20.60;99.90
31597;DHT22;18201;50.978;7.034;2022-08-20T00:24:07;20.60;99.90
31597;DHT22;18201;50.978;7.034;2022-08-20T00:25:10;20.60;99.90
31597;DHT22;18201;50.978;7.034;2022-08-20T00:26:13;20.60;99.90
31597;DHT22;18201;50.978;7.034;2022-08-20T00:27:14;20.60;99.90
31597;DHT22;18201;50.978;7.034;2022-08-20T00:28:16;20.60;99.90
31597;DHT22;18201;50.978;7.034;2022-08-20T00:29:17;20.50;99.90
31597;DHT22;18201;50.978;7.034;2022-08-20T00:30:19;20.60;99.90
31597;DHT22;18201;50.978;7.034;2022-08-20T00:31:21;20.50;99.90
31597;DHT22;18201;50.978;7.034;2022-08-20T00:32:24;20.50;99.90
31597;DHT22;18201;50.978;7.034;2022-08-20T00:33:27;20.50;99.90
31597;DHT22;18201;50.978;7.034;2022-08-20T00:34:28;20.50;99.90
31597;DHT22;18201;50.978;7.034;2022-08-20T00:35:31;20.50;99.90
31597;DHT22;18201;50.978;7.034;2022-08-20T00:36:33;20.40;99.90
31597;DHT22;18201;50.978;7.034;2022-08-20T00:37:34;20.40;99.90
31597;DHT22;18201;50.978;7.034;2022-08-20T00:38:37;20.40;99.90
31597;DHT22;18201;50.978;7.034;2022-08-20T00:39:40;20.40;99.90
31597;DHT22;18201;50.978;7.034;2022-08-20T00:40:43;20.40;99.90
31597;DHT22;18201;50.978;7.034;2022-08-20T00:41:45;20.40;99.90
31597;DHT22;18201;50.978;7.034;2022-08-20T00:42:50;20.40;99.90
31597;DHT22;18201;50.978;7.034;2022-08-20T00:44:05;20.30;99.90
31597;DHT22;18201;50.978;7.034;2022-08-20T00:45:08;20.30;99.90
31597;DHT22;18201;50.978;7.034;2022-08-20T00:46:12;20.30;99.90
31597;DHT22;18201;50.978;7.034;2022-08-20T00:47:14;20.20;99.90
31597;DHT22;18201;50.978;7.034;2022-08-20T00:48:15;20.20;99.90
31597;DHT22;18201;50.978;7.034;2022-08-20T00:49:20;20.20;99.90
31597;DHT22;18201;50.978;7.034;2022-08-20T00:50:25;20.10;99.90
31597;DHT22;18201;50.978;7.034;2022-08-20T00:51:33;20.10;99.90
31597;DHT22;18201;50.978;7.034;2022-08-20T00:52:36;20.00;99.90
31597;DHT22;18201;50.978;7.034;2022-08-20T00:53:38;20.00;99.90
31597;DHT22;18201;50.978;7.034;2022-08-20T00:54:45;20.00;99.90
31597;DHT22;18201;50.978;7.034;2022-08-20T00:55:47;20.00;99.90
31597;DHT22;18201;50.978;7.034;2022-08-20T00:56:51;19.90;99.90
31597;DHT22;18201;50.978;7.034;2022-08-20T00:57:59;19.80;99.90
31597;DHT22;18201;50.978;7.034;2022-08-20T00:59:03;19.80;99.90
31597;DHT22;18201;50.978;7.034;2022-08-20T01:00:10;19.80;99.90
31597;DHT22;18201;50.978;7.034;2022-08-20T01:01:13;19.80;99.90
31597;DHT22;18201;50.978;7.034;2022-08-20T01:02:17;19.80;99.90
31597;DHT22;18201;50.978;7.034;2022-08-20T01:03:19;19.80;99.90
31597;DHT22;18201;50.978;7.034;2022-08-20T01:04:22;19.70;99.90
31597;DHT22;18201;50.978;7.034;2022-08-20T01:05:24;19.70;99.90
31597;DHT22;18201;50.978;7.034;2022-08-20T01:06:26;19.80;99.90
31597;DHT22;18201;50.978;7.034;2022-08-20T01:07:29;19.70;99.90
31597;DHT22;18201;50.978;7.034;2022-08-20T01:08:34;19.70;99.90
31597;DHT22;18201;50.978;7.034;2022-08-20T01:09:37;19.70;99.90
31597;DHT22;18201;50.978;7.034;2022-08-20T01:10:42;19.70;99.90
31597;DHT22;18201;50.978;7.034;2022-08-20T01:11:44;19.60;99.90
31597;DHT22;18201;50.978;7.034;2022-08-20T01:12:47;19.60;99.90
31597;DHT22;18201;50.978;7.034;2022-08-20T01:13:49;19.60;99.90
31597;DHT22;18201;50.978;7.034;2022-08-20T01:14:52;19.60;99.90
31597;DHT22;18201;50.978;7.034;2022-08-20T01:15:55;19.60;99.90
31597;DHT22;18201;50.978;7.034;2022-08-20T01:17:00;19.60;99.90
31597;DHT22;18201;50.978;7.034;2022-08-20T01:18:02;19.60;99.90
31597;DHT22;18201;50.978;7.034;2022-08-20T01:19:04;19.60;99.90
31597;DHT22;18201;50.978;7.034;2022-08-20T01:20:11;19.60;99.90
31597;DHT22;18201;50.978;7.034;2022-08-20T01:21:16;19.60;99.90
31597;DHT22;18201;50.978;7.034;2022-08-20T01:22:26;19.60;99.90
31597;DHT22;18201;50.978;7.034;2022-08-20T01:23:53;19.50;99.90
31597;DHT22;18201;50.978;7.034;2022-08-20T01:25:05;19.60;99.90
31597;DHT22;18201;50.978;7.034;2022-08-20T01:26:11;19.50;99.90
31597;DHT22;18201;50.978;7.034;2022-08-20T01:27:14;19.60;99.90
31597;DHT22;18201;50.978;7.034;2022-08-20T01:28:17;19.60;99.90
31597;DHT22;18201;50.978;7.034;2022-08-20T01:29:24;19.60;99.90
31597;DHT22;18201;50.978;7.034;2022-08-20T01:30:26;19.60;99.90
31597;DHT22;18201;50.978;7.034;2022-08-20T01:31:33;19.60;99.90
31597;DHT22;18201;50.978;7.034;2022-08-20T01:32:34;19.60;99.90
31597;DHT22;18201;50.978;7.034;2022-08-20T01:33:36;19.60;99.90
31597;DHT22;18201;50.978;7.034;2022-08-20T01:34:38;19.60;99.90
31597;DHT22;18201;50.978;7.034;2022-08-20T01:35:41;19.60;99.90
31597;DHT22;18201;50.978;7.034;2022-08-20T01:36:44;19.60;99.90
31597;DHT22;18201;50.978;7.034;2022-08-20T01:37:47;19.50;99.90
31597;DHT22;18201;50.978;7.034;2022-08-20T01:38:48;19.50;99.90
31597;DHT22;18201;50.978;7.034;2022-08-20T01:39:50;19.60;99.90
31597;DHT22;18201;50.978;7.034;2022-08-20T01:41:05;19.60;99.90
31597;DHT22;18201;50.978;7.034;2022-08-20T01:42:17;19.60;99.90
31597;DHT22;18201;50.978;7.034;2022-08-20T01:43:21;19.50;99.90
31597;DHT22;18201;50.978;7.034;2022-08-20T01:44:24;19.50;99.90
31597;DHT22;18201;50.978;7.034;2022-08-20T01:45:26;19.50;99.90
31597;DHT22;18201;50.978;7.034;2022-08-20T01:46:30;19.50;99.90
31597;DHT22;18201;50.978;7.034;2022-08-20T01:47:33;19.50;99.90
31597;DHT22;18201;50.978;7.034;2022-08-20T01:48:35;19.50;99.90
31597;DHT22;18201;50.978;7.034;2022-08-20T01:49:40;19.40;99.90
31597;DHT22;18201;50.978;7.034;2022-08-20T01:50:48;19.40;99.90
31597;DHT22;18201;50.978;7.034;2022-08-20T01:51:54;19.40;99.90
31597;DHT22;18201;50.978;7.034;2022-08-20T01:53:03;19.40;99.90
31597;DHT22;18201;50.978;7.034;2022-08-20T01:54:06;19.40;99.90
31597;DHT22;18201;50.978;7.034;2022-08-20T01:55:09;19.40;99.90
31597;DHT22;18201;50.978;7.034;2022-08-20T01:56:12;19.40;99.90
31597;DHT22;18201;50.978;7.034;2022-08-20T01:57:18;19.40;99.90
31597;DHT22;18201;50.978;7.034;2022-08-20T01:58:19;19.40;99.90
31597;DHT22;18201;50.978;7.034;2022-08-20T01:59:21;19.30;99.90
31597;DHT22;18201;50.978;7.034;2022-08-20T02:00:24;19.30;99.90
31597;DHT22;18201;50.978;7.034;2022-08-20T02:01:28;19.30;99.90
31597;DHT22;18201;50.978;7.034;2022-08-20T02:02:32;19.30;99.90
31597;DHT22;18201;50.978;7.034;2022-08-20T02:03:33;19.30;99.90
31597;DHT22;18201;50.978;7.034;2022-08-20T02:04:35;19.30;99.90
31597;DHT22;18201;50.978;7.034;2022-08-20T02:05:36;19.20;99.90
31597;DHT22;18201;50.978;7.034;2022-08-20T02:06:40;19.30;99.90
31597;DHT22;18201;50.978;7.034;2022-08-20T02:07:42;19.20;99.90
31597;DHT22;18201;50.978;7.034;2022-08-20T02:08:44;19.30;99.90
31597;DHT22;18201;50.978;7.034;2022-08-20T02:09:45;19.20;99.90
31597;DHT22;18201;50.978;7.034;2022-08-20T02:10:48;19.20;99.90
31597;DHT22;18201;50.978;7.034;2022-08-20T02:11:49;19.30;99.90
31597;DHT22;18201;50.978;7.034;2022-08-20T02:12:54;19.20;99.90
31597;DHT22;18201;50.978;7.034;2022-08-20T02:13:55;19.30;99.90
31597;DHT22;18201;50.978;7.034;2022-08-20T02:14:57;19.30;99.90
31597;DHT22;18201;50.978;7.034;2022-08-20T02:15:59;19.30;99.90
31597;DHT22;18201;50.978;7.034;2022-08-20T02:17:01;19.30;99.90
31597;DHT22;18201;50.978;7.034;2022-08-20T02:18:04;19.30;99.90
31597;DHT22;18201;50.978;7.034;2022-08-20T02:19:09;19.30;99.90
31597;DHT22;18201;50.978;7.034;2022-08-20T02:20:15;19.30;99.90
31597;DHT22;18201;50.978;7.034;2022-08-20T02:21:17;19.30;99.90
31597;DHT22;18201;50.978;7.034;2022-08-20T02:22:21;19.30;99.90
31597;DHT22;18201;50.978;7.034;2022-08-20T02:23:24;19.30;99.90
31597;DHT22;18201;50.978;7.034;2022-08-20T02:24:25;19.30;99.90
31597;DHT22;18201;50.978;7.034;2022-08-20T02:25:29;19.30;99.90
31597;DHT22;18201;50.978;7.034;2022-08-20T02:26:31;19.30;99.90
31597;DHT22;18201;50.978;7.034;2022-08-20T02:27:33;19.30;99.90
31597;DHT22;18201;50.978;7.034;2022-08-20T02:28:35;19.30;99.90
31597;DHT22;18201;50.978;7.034;2022-08-20T02:29:38;19.30;99.90
31597;DHT22;18201;50.978;7.034;2022-08-20T02:30:42;19.30;99.90
31597;DHT22;18201;50.978;7.034;2022-08-20T02:31:45;19.20;99.90
31597;DHT22;18201;50.978;7.034;2022-08-20T02:32:46;19.20;99.90
31597;DHT22;18201;50.978;7.034;2022-08-20T02:33:48;19.20;99.90
31597;DHT22;18201;50.978;7.034;2022-08-20T02:34:49;19.20;99.90
31597;DHT22;18201;50.978;7.034;2022-08-20T02:35:52;19.30;99.90
31597;DHT22;18201;50.978;7.034;2022-08-20T02:37:01;19.20;99.90
31597;DHT22;18201;50.978;7.034;2022-08-20T02:38:03;19.20;99.90
31597;DHT22;18201;50.978;7.034;2022-08-20T02:39:06;19.20;99.90
31597;DHT22;18201;50.978;7.034;2022-08-20T02:40:11;19.20;99.90
31597;DHT22;18201;50.978;7.034;2022-08-20T02:41:13;19.20;99.90
31597;DHT22;18201;50.978;7.034;2022-08-20T02:42:15;19.20;99.90
31597;DHT22;18201;50.978;7.034;2022-08-20T02:43:17;19.10;99.90
31597;DHT22;18201;50.978;7.034;2022-08-20T02:44:22;19.10;99.90
31597;DHT22;18201;50.978;7.034;2022-08-20T02:45:23;19.10;99.90
31597;DHT22;18201;50.978;7.034;2022-08-20T02:46:25;19.10;99.90
31597;DHT22;18201;50.978;7.034;2022-08-20T02:47:27;19.10;99.90
31597;DHT22;18201;50.978;7.034;2022-08-20T02:48:30;19.20;99.90
31597;DHT22;18201;50.978;7.034;2022-08-20T02:49:32;19.10;99.90
31597;DHT22;18201;50.978;7.034;2022-08-20T02:50:35;19.10;99.90
31597;DHT22;18201;50.978;7.034;2022-08-20T02:51:35;19.10;99.90
31597;DHT22;18201;50.978;7.034;2022-08-20T02:52:37;19.10;99.90
31597;DHT22;18201;50.978;7.034;2022-08-20T02:53:40;19.10;99.90
31597;DHT22;18201;50.978;7.034;2022-08-20T02:54:42;19.10;99.90
31597;DHT22;18201;50.978;7.034;2022-08-20T02:55:43;19.00;99.90
31597;DHT22;18201;50.978;7.034;2022-08-20T02:56:45;19.10;99.90
31597;DHT22;18201;50.978;7.034;2022-08-20T02:57:47;19.00;99.90
31597;DHT22;18201;50.978;7.034;2022-08-20T02:58:49;19.00;99.90
31597;DHT22;18201;50.978;7.034;2022-08-20T02:59:51;19.00;99.90
31597;DHT22;18201;50.978;7.034;2022-08-20T03:00:53;19.00;99.90
31597;DHT22;18201;50.978;7.034;2022-08-20T03:01:55;19.00;99.90
31597;DHT22;18201;50.978;7.034;2022-08-20T03:02:58;19.00;99.90
31597;DHT22;18201;50.978;7.034;2022-08-20T03:04:00;19.00;99.90
31597;DHT22;18201;50.978;7.034;2022-08-20T03:05:03;19.00;99.90
31597;DHT22;18201;50.978;7.034;2022-08-20T03:06:05;19.00;99.90
31597;DHT22;18201;50.978;7.034;2022-08-20T03:07:08;19.00;99.90
31597;DHT22;18201;50.978;7.034;2022-08-20T03:08:12;19.00;99.90
31597;DHT22;18201;50.978;7.034;2022-08-20T03:09:15;19.00;99.90
31597;DHT22;18201;50.978;7.034;2022-08-20T03:10:16;19.00;99.90
31597;DHT22;18201;50.978;7.034;2022-08-20T03:11:18;19.00;99.90
31597;DHT22;18201;50.978;7.034;2022-08-20T03:12:20;19.00;99.90
31597;DHT22;18201;50.978;7.034;2022-08-20T03:13:22;19.00;99.90
31597;DHT22;18201;50.978;7.034;2022-08-20T03:14:23;19.10;99.90
31597;DHT22;18201;50.978;7.034;2022-08-20T03:15:27;19.10;99.90
31597;DHT22;18201;50.978;7.034;2022-08-20T03:16:28;19.10;99.90
31597;DHT22;18201;50.978;7.034;2022-08-20T03:17:30;19.10;99.90
31597;DHT22;18201;50.978;7.034;2022-08-20T03:18:36;19.10;99.90
31597;DHT22;18201;50.978;7.034;2022-08-20T03:19:38;19.10;99.90
31597;DHT22;18201;50.978;7.034;2022-08-20T03:20:39;19.10;99.90
31597;DHT22;18201;50.978;7.034;2022-08-20T03:21:41;19.10;99.90
31597;DHT22;18201;50.978;7.034;2022-08-20T03:22:42;19.10;99.90
31597;DHT22;18201;50.978;7.034;2022-08-20T03:23:45;19.10;99.90
31597;DHT22;18201;50.978;7.034;2022-08-20T03:24:46;19.10;99.90
31597;DHT22;18201;50.978;7.034;2022-08-20T03:25:48;19.00;99.90
31597;DHT22;18201;50.978;7.034;2022-08-20T03:26:49;19.10;99.90
31597;DHT22;18201;50.978;7.034;2022-08-20T03:27:51;19.00;99.90
31597;DHT22;18201;50.978;7.034;2022-08-20T03:28:54;19.10;99.90
31597;DHT22;18201;50.978;7.034;2022-08-20T03:29:56;19.10;99.90
31597;DHT22;18201;50.978;7.034;2022-08-20T03:30:59;19.10;99.90
31597;DHT22;18201;50.978;7.034;2022-08-20T03:32:01;19.10;99.90
31597;DHT22;18201;50.978;7.034;2022-08-20T03:33:03;19.10;99.90
31597;DHT22;18201;50.978;7.034;2022-08-20T03:34:05;19.10;99.90
31597;DHT22;18201;50.978;7.034;2022-08-20T03:35:09;19.10;99.90
31597;DHT22;18201;50.978;7.034;2022-08-20T03:36:11;19.10;99.90
31597;DHT22;18201;50.978;7.034;2022-08-20T03:37:13;19.10;99.90
31597;DHT22;18201;50.978;7.034;2022-08-20T03:38:16;19.10;99.90
31597;DHT22;18201;50.978;7.034;2022-08-20T03:39:18;19.10;99.90
31597;DHT22;18201;50.978;7.034;2022-08-20T03:40:23;19.10;99.90
31597;DHT22;18201;50.978;7.034;2022-08-20T03:41:25;19.10;99.90
31597;DHT22;18201;50.978;7.034;2022-08-20T03:42:29;19.10;99.90
31597;DHT22;18201;50.978;7.034;2022-08-20T03:43:32;19.20;99.90
31597;DHT22;18201;50.978;7.034;2022-08-20T03:44:33;19.10;99.90
31597;DHT22;18201;50.978;7.034;2022-08-20T03:45:38;19.10;99.90
31597;DHT22;18201;50.978;7.034;2022-08-20T03:46:41;19.10;99.90
31597;DHT22;18201;50.978;7.034;2022-08-20T03:47:43;19.10;99.90
31597;DHT22;18201;50.978;7.034;2022-08-20T03:48:43;19.10;99.90
31597;DHT22;18201;50.978;7.034;2022-08-20T03:49:45;19.10;99.90
31597;DHT22;18201;50.978;7.034;2022-08-20T03:50:47;19.10;99.90
31597;DHT22;18201;50.978;7.034;2022-08-20T03:51:50;19.10;99.90
31597;DHT22;18201;50.978;7.034;2022-08-20T03:52:52;19.10;99.90
31597;DHT22;18201;50.978;7.034;2022-08-20T03:53:54;19.10;99.90
31597;DHT22;18201;50.978;7.034;2022-08-20T03:54:56;19.10;99.90
31597;DHT22;18201;50.978;7.034;2022-08-20T03:55:58;19.10;99.90
31597;DHT22;18201;50.978;7.034;2022-08-20T03:57:03;19.10;99.90
31597;DHT22;18201;50.978;7.034;2022-08-20T03:58:07;19.10;99.90
31597;DHT22;18201;50.978;7.034;2022-08-20T03:59:10;19.10;99.90
31597;DHT22;18201;50.978;7.034;2022-08-20T04:00:12;19.10;99.90
31597;DHT22;18201;50.978;7.034;2022-08-20T04:01:15;19.10;99.90
31597;DHT22;18201;50.978;7.034;2022-08-20T04:02:17;19.10;99.90
31597;DHT22;18201;50.978;7.034;2022-08-20T04:03:19;19.10;99.90
31597;DHT22;18201;50.978;7.034;2022-08-20T04:04:20;19.10;99.90
31597;DHT22;18201;50.978;7.034;2022-08-20T04:05:22;19.10;99.90
31597;DHT22;18201;50.978;7.034;2022-08-20T04:06:23;19.10;99.90
31597;DHT22;18201;50.978;7.034;2022-08-20T04:07:25;19.10;99.90
31597;DHT22;18201;50.978;7.034;2022-08-20T04:08:28;19.10;99.90
31597;DHT22;18201;50.978;7.034;2022-08-20T04:09:30;19.10;99.90
31597;DHT22;18201;50.978;7.034;2022-08-20T04:10:31;19.20;99.90
31597;DHT22;18201;50.978;7.034;2022-08-20T04:11:33;19.20;99.90
31597;DHT22;18201;50.978;7.034;2022-08-20T04:12:34;19.20;99.90
31597;DHT22;18201;50.978;7.034;2022-08-20T04:13:39;19.20;99.90
31597;DHT22;18201;50.978;7.034;2022-08-20T04:14:39;19.20;99.90
31597;DHT22;18201;50.978;7.034;2022-08-20T04:15:41;19.20;99.90
31597;DHT22;18201;50.978;7.034;2022-08-20T04:16:44;19.20;99.90
31597;DHT22;18201;50.978;7.034;2022-08-20T04:17:48;19.20;99.90
31597;DHT22;18201;50.978;7.034;2022-08-20T04:18:50;19.20;99.90
31597;DHT22;18201;50.978;7.034;2022-08-20T04:19:51;19.20;99.90
31597;DHT22;18201;50.978;7.034;2022-08-20T04:20:53;19.20;99.90
31597;DHT22;18201;50.978;7.034;2022-08-20T04:21:55;19.20;99.90
31597;DHT22;18201;50.978;7.034;2022-08-20T04:22:56;19.20;99.90
31597;DHT22;18201;50.978;7.034;2022-08-20T04:23:58;19.20;99.90
31597;DHT22;18201;50.978;7.034;2022-08-20T04:24:59;19.20;99.90
31597;DHT22;18201;50.978;7.034;2022-08-20T04:26:01;19.30;99.90
31597;DHT22;18201;50.978;7.034;2022-08-20T04:27:02;19.30;99.90
31597;DHT22;18201;50.978;7.034;2022-08-20T04:28:06;19.30;99.90
31597;DHT22;18201;50.978;7.034;2022-08-20T04:29:07;19.30;99.90
31597;DHT22;18201;50.978;7.034;2022-08-20T04:30:11;19.30;99.90
31597;DHT22;18201;50.978;7.034;2022-08-20T04:31:13;19.30;99.90
31597;DHT22;18201;50.978;7.034;2022-08-20T04:32:17;19.30;99.90
31597;DHT22;18201;50.978;7.034;2022-08-20T04:33:20;19.30;99.90
31597;DHT22;18201;50.978;7.034;2022-08-20T04:34:22;19.30;99.90
31597;DHT22;18201;50.978;7.034;2022-08-20T04:35:23;19.30;99.90
31597;DHT22;18201;50.978;7.034;2022-08-20T04:36:25;19.30;99.90
31597;DHT22;18201;50.978;7.034;2022-08-20T04:37:30;19.30;99.90
31597;DHT22;18201;50.978;7.034;2022-08-20T04:38:34;19.30;99.90
31597;DHT22;18201;50.978;7.034;2022-08-20T04:39:35;19.30;99.90
31597;DHT22;18201;50.978;7.034;2022-08-20T04:40:36;19.30;99.90
31597;DHT22;18201;50.978;7.034;2022-08-20T04:41:53;19.40;99.90
31597;DHT22;18201;50.978;7.034;2022-08-20T04:42:54;19.40;99.90
31597;DHT22;18201;50.978;7.034;2022-08-20T04:43:56;19.40;99.90
31597;DHT22;18201;50.978;7.034;2022-08-20T04:44:57;19.40;99.90
31597;DHT22;18201;50.978;7.034;2022-08-20T04:46:01;19.30;99.90
31597;DHT22;18201;50.978;7.034;2022-08-20T04:47:03;19.30;99.90
31597;DHT22;18201;50.978;7.034;2022-08-20T04:48:07;19.10;99.90
31597;DHT22;18201;50.978;7.034;2022-08-20T04:49:10;19.00;99.90
31597;DHT22;18201;50.978;7.034;2022-08-20T04:50:12;19.00;99.90
31597;DHT22;18201;50.978;7.034;2022-08-20T04:51:13;18.80;99.90
31597;DHT22;18201;50.978;7.034;2022-08-20T04:52:15;18.70;99.90
31597;DHT22;18201;50.978;7.034;2022-08-20T04:53:17;18.70;99.90
31597;DHT22;18201;50.978;7.034;2022-08-20T04:54:19;18.60;99.90
31597;DHT22;18201;50.978;7.034;2022-08-20T04:55:20;18.60;99.90
31597;DHT22;18201;50.978;7.034;2022-08-20T04:56:25;18.50;99.90
31597;DHT22;18201;50.978;7.034;2022-08-20T04:57:26;18.50;99.90
31597;DHT22;18201;50.978;7.034;2022-08-20T04:58:30;18.40;99.90
31597;DHT22;18201;50.978;7.034;2022-08-20T04:59:33;18.40;99.90
31597;DHT22;18201;50.978;7.034;2022-08-20T05:00:34;18.30;99.90
31597;DHT22;18201;50.978;7.034;2022-08-20T05:01:36;18.30;99.90
31597;DHT22;18201;50.978;7.034;2022-08-20T05:02:37;18.30;99.90
31597;DHT22;18201;50.978;7.034;2022-08-20T05:03:40;18.30;99.90
31597;DHT22;18201;50.978;7.034;2022-08-20T05:04:43;18.30;99.90
31597;DHT22;18201;50.978;7.034;2022-08-20T05:05:45;18.30;99.90
31597;DHT22;18201;50.978;7.034;2022-08-20T05:06:47;18.30;99.90
31597;DHT22;18201;50.978;7.034;2022-08-20T05:07:49;18.30;99.90
31597;DHT22;18201;50.978;7.034;2022-08-20T05:08:51;18.30;99.90
31597;DHT22;18201;50.978;7.034;2022-08-20T05:09:53;18.30;99.90
31597;DHT22;18201;50.978;7.034;2022-08-20T05:10:54;18.30;99.90
31597;DHT22;18201;50.978;7.034;2022-08-20T05:11:57;18.30;99.90
31597;DHT22;18201;50.978;7.034;2022-08-20T05:13:00;18.40;99.90
31597;DHT22;18201;50.978;7.034;2022-08-20T05:14:04;18.30;99.90
31597;DHT22;18201;50.978;7.034;2022-08-20T05:15:06;18.30;99.90
31597;DHT22;18201;50.978;7.034;2022-08-20T05:16:10;18.40;99.90
31597;DHT22;18201;50.978;7.034;2022-08-20T05:17:12;18.30;99.90
31597;DHT22;18201;50.978;7.034;2022-08-20T05:18:16;18.30;99.90
31597;DHT22;18201;50.978;7.034;2022-08-20T05:19:18;18.30;99.90
31597;DHT22;18201;50.978;7.034;2022-08-20T05:20:22;18.30;99.90
31597;DHT22;18201;50.978;7.034;2022-08-20T05:21:23;18.30;99.90
31597;DHT22;18201;50.978;7.034;2022-08-20T05:22:25;18.30;99.90
31597;DHT22;18201;50.978;7.034;2022-08-20T05:23:27;18.30;99.90
31597;DHT22;18201;50.978;7.034;2022-08-20T05:24:29;18.30;99.90
31597;DHT22;18201;50.978;7.034;2022-08-20T05:25:30;18.30;99.90
31597;DHT22;18201;50.978;7.034;2022-08-20T05:26:32;18.30;99.90
31597;DHT22;18201;50.978;7.034;2022-08-20T05:27:33;18.30;99.90
31597;DHT22;18201;50.978;7.034;2022-08-20T05:28:37;18.30;99.90
31597;DHT22;18201;50.978;7.034;2022-08-20T05:29:39;18.30;99.90
31597;DHT22;18201;50.978;7.034;2022-08-20T05:30:43;18.30;99.90
31597;DHT22;18201;50.978;7.034;2022-08-20T05:31:47;18.30;99.90
31597;DHT22;18201;50.978;7.034;2022-08-20T05:32:49;18.30;99.90
31597;DHT22;18201;50.978;7.034;2022-08-20T05:33:50;18.30;99.90
31597;DHT22;18201;50.978;7.034;2022-08-20T05:34:52;18.30;99.90
31597;DHT22;18201;50.978;7.034;2022-08-20T05:35:56;18.30;99.90
31597;DHT22;18201;50.978;7.034;2022-08-20T05:36:58;18.30;99.90
31597;DHT22;18201;50.978;7.034;2022-08-20T05:38:00;18.30;99.90
31597;DHT22;18201;50.978;7.034;2022-08-20T05:39:02;18.30;99.90
31597;DHT22;18201;50.978;7.034;2022-08-20T05:40:08;18.40;99.90
31597;DHT22;18201;50.978;7.034;2022-08-20T05:41:10;18.40;99.90
31597;DHT22;18201;50.978;7.034;2022-08-20T05:42:12;18.40;99.90
31597;DHT22;18201;50.978;7.034;2022-08-20T05:43:14;18.40;99.90
31597;DHT22;18201;50.978;7.034;2022-08-20T05:44:16;18.30;99.90
31597;DHT22;18201;50.978;7.034;2022-08-20T05:45:18;18.40;99.90
31597;DHT22;18201;50.978;7.034;2022-08-20T05:46:20;18.40;99.90
31597;DHT22;18201;50.978;7.034;2022-08-20T05:47:22;18.40;99.90
31597;DHT22;18201;50.978;7.034;2022-08-20T05:48:28;18.40;99.90
31597;DHT22;18201;50.978;7.034;2022-08-20T05:49:30;18.40;99.90
31597;DHT22;18201;50.978;7.034;2022-08-20T05:50:33;18.40;99.90
31597;DHT22;18201;50.978;7.034;2022-08-20T05:51:36;18.40;99.90
31597;DHT22;18201;50.978;7.034;2022-08-20T05:52:38;18.40;99.90
31597;DHT22;18201;50.978;7.034;2022-08-20T05:53:39;18.40;99.90
31597;DHT22;18201;50.978;7.034;2022-08-20T05:54:41;18.40;99.90
31597;DHT22;18201;50.978;7.034;2022-08-20T05:55:42;18.40;99.90
31597;DHT22;18201;50.978;7.034;2022-08-20T05:56:45;18.40;99.90
31597;DHT22;18201;50.978;7.034;2022-08-20T05:57:47;18.40;99.90
31597;DHT22;18201;50.978;7.034;2022-08-20T05:58:48;18.30;99.90
31597;DHT22;18201;50.978;7.034;2022-08-20T05:59:50;18.30;99.90
31597;DHT22;18201;50.978;7.034;2022-08-20T06:00:52;18.30;99.90
31597;DHT22;18201;50.978;7.034;2022-08-20T06:01:54;18.30;99.90
31597;DHT22;18201;50.978;7.034;2022-08-20T06:02:55;18.40;99.90
31597;DHT22;18201;50.978;7.034;2022-08-20T06:04:14;18.40;99.90
31597;DHT22;18201;50.978;7.034;2022-08-20T06:05:27;18.40;99.90
31597;DHT22;18201;50.978;7.034;2022-08-20T06:06:28;18.40;99.90
31597;DHT22;18201;50.978;7.034;2022-08-20T06:07:32;18.40;99.90
31597;DHT22;18201;50.978;7.034;2022-08-20T06:08:34;18.30;99.90
31597;DHT22;18201;50.978;7.034;2022-08-20T06:09:35;18.40;99.90
31597;DHT22;18201;50.978;7.034;2022-08-20T06:10:38;18.40;99.90
31597;DHT22;18201;50.978;7.034;2022-08-20T06:11:39;18.40;99.90
31597;DHT22;18201;50.978;7.034;2022-08-20T06:12:41;18.30;99.90
31597;DHT22;18201;50.978;7.034;2022-08-20T06:13:47;18.30;99.90
31597;DHT22;18201;50.978;7.034;2022-08-20T06:14:48;18.30;99.90
31597;DHT22;18201;50.978;7.034;2022-08-20T06:15:50;18.30;99.90
31597;DHT22;18201;50.978;7.034;2022-08-20T06:16:51;18.30;99.90
31597;DHT22;18201;50.978;7.034;2022-08-20T06:17:53;18.30;99.90
31597;DHT22;18201;50.978;7.034;2022-08-20T06:18:54;18.30;99.90
31597;DHT22;18201;50.978;7.034;2022-08-20T06:19:56;18.40;99.90
31597;DHT22;18201;50.978;7.034;2022-08-20T06:20:57;18.30;99.90
31597;DHT22;18201;50.978;7.034;2022-08-20T06:21:59;18.30;99.90
31597;DHT22;18201;50.978;7.034;2022-08-20T06:23:01;18.40;99.90
31597;DHT22;18201;50.978;7.034;2022-08-20T06:24:04;18.30;99.90
31597;DHT22;18201;50.978;7.034;2022-08-20T06:25:06;18.30;99.90
31597;DHT22;18201;50.978;7.034;2022-08-20T06:26:09;18.30;99.90
31597;DHT22;18201;50.978;7.034;2022-08-20T06:27:13;18.40;99.90
31597;DHT22;18201;50.978;7.034;2022-08-20T06:28:16;18.30;99.90
31597;DHT22;18201;50.978;7.034;2022-08-20T06:29:20;18.40;99.90
31597;DHT22;18201;50.978;7.034;2022-08-20T06:30:22;18.30;99.90
31597;DHT22;18201;50.978;7.034;2022-08-20T06:31:24;18.20;99.90
31597;DHT22;18201;50.978;7.034;2022-08-20T06:32:24;18.20;99.90
31597;DHT22;18201;50.978;7.034;2022-08-20T06:33:27;18.20;99.90
31597;DHT22;18201;50.978;7.034;2022-08-20T06:34:30;18.20;99.90
31597;DHT22;18201;50.978;7.034;2022-08-20T06:35:32;18.30;99.90
31597;DHT22;18201;50.978;7.034;2022-08-20T06:36:33;18.30;99.90